sensor_id;sensor_type;location;lat;lon;timestamp;temperature;humidity
1351;DHT22;669;50.206;9.998;2022-08-21T00:01:44;15.80;64.00
1351;DHT22;669;50.206;9.998;2022-08-21T00:04:14;15.80;64.20
1351;DHT22;669;50.206;9.998;2022-08-21T00:06:48;15.70;64.10
1351;DHT22;669;50.206;9.998;2022-08-21T00:09:18;15.70;64.30
1351;DHT22;669;50.206;9.998;2022-08-21T00:11:47;15.70;65.70
1351;DHT22;669;50.206;9.998;2022-08-21T00:14:16;15.80;66.20
1351;DHT22;669;50.206;9.998;2022-08-21T00:16:44;15.90;66.20
1351;DHT22;669;50.206;9.998;2022-08-21T00:19:13;15.90;65.10
1351;DHT22;669;50.206;9.998;2022-08-21T00:21:41;15.90;65.00
1351;DHT22;669;50.206;9.998;2022-08-21T00:24:10;15.90;64.50
1351;DHT22;669;50.206;9.998;2022-08-21T00:26:38;15.80;64.20
1351;DHT22;669;50.206;9.998;2022-08-21T00:29:06;15.70;64.10
1351;DHT22;669;50.206;9.998;2022-08-21T00:31:34;15.70;65.10
1351;DHT22;669;50.206;9.998;2022-08-21T00:34:03;15.60;64.80
1351;DHT22;669;50.206;9.998;2022-08-21T00:36:32;15.60;63.00
1351;DHT22;669;50.206;9.998;2022-08-21T00:39:00;15.40;64.60
1351;DHT22;669;50.206;9.998;2022-08-21T00:41:29;15.50;65.60
1351;DHT22;669;50.206;9.998;2022-08-21T00:44:05;15.50;66.60
1351;DHT22;669;50.206;9.998;2022-08-21T00:46:33;15.60;65.70
1351;DHT22;669;50.206;9.998;2022-08-21T00:49:02;15.60;64.80
1351;DHT22;669;50.206;9.998;2022-08-21T00:51:37;15.60;64.50
1351;DHT22;669;50.206;9.998;2022-08-21T00:54:06;15.40;64.60
1351;DHT22;669;50.206;9.998;2022-08-21T00:56:46;15.40;65.50
1351;DHT22;669;50.206;9.998;2022-08-21T00:59:14;15.40;65.30
1351;DHT22;669;50.206;9.998;2022-08-21T01:01:43;15.50;66.10
1351;DHT22;669;50.206;9.998;2022-08-21T01:04:11;15.50;64.70
1351;DHT22;669;50.206;9.998;2022-08-21T01:06:41;15.20;64.40
1351;DHT22;669;50.206;9.998;2022-08-21T01:09:09;15.10;63.00
1351;DHT22;669;50.206;9.998;2022-08-21T01:11:37;15.00;64.20
1351;DHT22;669;50.206;9.998;2022-08-21T01:14:05;15.00;65.80
1351;DHT22;669;50.206;9.998;2022-08-21T01:16:33;15.00;66.40
1351;DHT22;669;50.206;9.998;2022-08-21T01:19:01;15.10;66.50
1351;DHT22;669;50.206;9.998;2022-08-21T01:21:31;15.20;66.50
1351;DHT22;669;50.206;9.998;2022-08-21T01:23:59;15.20;66.30
1351;DHT22;669;50.206;9.998;2022-08-21T01:26:30;15.10;65.50
1351;DHT22;669;50.206;9.998;2022-08-21T01:29:04;15.10;63.60
1351;DHT22;669;50.206;9.998;2022-08-21T01:31:33;14.90;63.10
1351;DHT22;669;50.206;9.998;2022-08-21T01:34:01;14.80;61.70
1351;DHT22;669;50.206;9.998;2022-08-21T01:36:31;14.60;61.70
1351;DHT22;669;50.206;9.998;2022-08-21T01:38:59;14.50;64.30
1351;DHT22;669;50.206;9.998;2022-08-21T01:41:27;14.60;66.20
1351;DHT22;669;50.206;9.998;2022-08-21T01:43:55;14.70;66.30
1351;DHT22;669;50.206;9.998;2022-08-21T01:46:22;14.80;66.10
1351;DHT22;669;50.206;9.998;2022-08-21T01:48:50;14.80;65.80
1351;DHT22;669;50.206;9.998;2022-08-21T01:51:18;14.70;63.90
1351;DHT22;669;50.206;9.998;2022-08-21T01:53:48;14.60;62.10
1351;DHT22;669;50.206;9.998;2022-08-21T01:56:16;14.40;62.70
1351;DHT22;669;50.206;9.998;2022-08-21T01:58:46;14.30;62.30
1351;DHT22;669;50.206;9.998;2022-08-21T02:01:15;14.20;63.30
1351;DHT22;669;50.206;9.998;2022-08-21T02:03:43;14.20;65.20
1351;DHT22;669;50.206;9.998;2022-08-21T02:06:13;14.30;65.20
1351;DHT22;669;50.206;9.998;2022-08-21T02:08:44;14.30;65.20
1351;DHT22;669;50.206;9.998;2022-08-21T02:11:14;14.40;65.70
1351;DHT22;669;50.206;9.998;2022-08-21T02:13:42;14.40;64.90
1351;DHT22;669;50.206;9.998;2022-08-21T02:16:10;14.30;63.00
1351;DHT22;669;50.206;9.998;2022-08-21T02:18:43;14.20;63.40
1351;DHT22;669;50.206;9.998;2022-08-21T02:21:10;14.10;63.40
1351;DHT22;669;50.206;9.998;2022-08-21T02:23:38;14.00;62.60
1351;DHT22;669;50.206;9.998;2022-08-21T02:26:07;13.90;62.30
1351;DHT22;669;50.206;9.998;2022-08-21T02:28:37;13.90;63.20
1351;DHT22;669;50.206;9.998;2022-08-21T02:31:06;13.90;63.00
1351;DHT22;669;50.206;9.998;2022-08-21T02:33:34;13.80;63.00
1351;DHT22;669;50.206;9.998;2022-08-21T02:36:03;13.70;61.40
1351;DHT22;669;50.206;9.998;2022-08-21T02:38:33;13.60;62.30
1351;DHT22;669;50.206;9.998;2022-08-21T02:41:05;13.60;64.30
1351;DHT22;669;50.206;9.998;2022-08-21T02:43:34;13.70;66.40
1351;DHT22;669;50.206;9.998;2022-08-21T02:46:06;13.80;67.10
1351;DHT22;669;50.206;9.998;2022-08-21T02:48:36;13.80;66.90
1351;DHT22;669;50.206;9.998;2022-08-21T02:51:06;13.90;66.90
1351;DHT22;669;50.206;9.998;2022-08-21T02:53:35;13.90;67.30
1351;DHT22;669;50.206;9.998;2022-08-21T02:56:06;14.00;66.70
1351;DHT22;669;50.206;9.998;2022-08-21T02:58:38;14.00;65.60
1351;DHT22;669;50.206;9.998;2022-08-21T03:01:08;14.00;66.10
1351;DHT22;669;50.206;9.998;2022-08-21T03:03:38;14.10;67.60
1351;DHT22;669;50.206;9.998;2022-08-21T03:06:08;14.10;67.60
1351;DHT22;669;50.206;9.998;2022-08-21T03:08:36;14.20;66.70
1351;DHT22;669;50.206;9.998;2022-08-21T03:11:05;14.30;65.50
1351;DHT22;669;50.206;9.998;2022-08-21T03:13:36;14.20;63.40
1351;DHT22;669;50.206;9.998;2022-08-21T03:16:08;14.10;63.70
1351;DHT22;669;50.206;9.998;2022-08-21T03:18:36;13.90;60.30
1351;DHT22;669;50.206;9.998;2022-08-21T03:21:06;13.70;62.40
1351;DHT22;669;50.206;9.998;2022-08-21T03:23:34;13.60;63.40
1351;DHT22;669;50.206;9.998;2022-08-21T03:26:03;13.60;65.80
1351;DHT22;669;50.206;9.998;2022-08-21T03:28:31;13.70;66.20
1351;DHT22;669;50.206;9.998;2022-08-21T03:30:59;13.80;67.30
1351;DHT22;669;50.206;9.998;2022-08-21T03:33:28;13.90;67.30
1351;DHT22;669;50.206;9.998;2022-08-21T03:35:59;13.90;63.20
1351;DHT22;669;50.206;9.998;2022-08-21T03:38:28;13.70;63.90
1351;DHT22;669;50.206;9.998;2022-08-21T03:40:57;13.70;61.00
1351;DHT22;669;50.206;9.998;2022-08-21T03:43:26;13.50;63.70
1351;DHT22;669;50.206;9.998;2022-08-21T03:45:58;13.70;67.60
1351;DHT22;669;50.206;9.998;2022-08-21T03:48:27;13.80;66.20
1351;DHT22;669;50.206;9.998;2022-08-21T03:50:55;13.70;63.00
1351;DHT22;669;50.206;9.998;2022-08-21T03:53:25;13.70;62.90
1351;DHT22;669;50.206;9.998;2022-08-21T03:55:54;13.50;65.50
1351;DHT22;669;50.206;9.998;2022-08-21T03:58:24;13.60;64.70
1351;DHT22;669;50.206;9.998;2022-08-21T04:00:55;13.50;62.00
1351;DHT22;669;50.206;9.998;2022-08-21T04:03:24;13.30;61.80
1351;DHT22;669;50.206;9.998;2022-08-21T04:05:54;13.20;62.70
1351;DHT22;669;50.206;9.998;2022-08-21T04:08:21;13.30;65.20
1351;DHT22;669;50.206;9.998;2022-08-21T04:10:52;13.40;65.30
1351;DHT22;669;50.206;9.998;2022-08-21T04:13:21;13.40;66.00
1351;DHT22;669;50.206;9.998;2022-08-21T04:15:49;13.50;63.90
1351;DHT22;669;50.206;9.998;2022-08-21T04:18:18;13.40;66.20
1351;DHT22;669;50.206;9.998;2022-08-21T04:20:47;13.40;66.20
1351;DHT22;669;50.206;9.998;2022-08-21T04:23:19;13.40;63.70
1351;DHT22;669;50.206;9.998;2022-08-21T04:25:50;13.40;63.40
1351;DHT22;669;50.206;9.998;2022-08-21T04:28:18;13.30;63.60
1351;DHT22;669;50.206;9.998;2022-08-21T04:30:46;13.20;64.30
1351;DHT22;669;50.206;9.998;2022-08-21T04:33:14;13.20;63.90
1351;DHT22;669;50.206;9.998;2022-08-21T04:35:42;13.10;62.90
1351;DHT22;669;50.206;9.998;2022-08-21T04:38:10;13.00;63.20
1351;DHT22;669;50.206;9.998;2022-08-21T04:40:39;13.00;65.90
1351;DHT22;669;50.206;9.998;2022-08-21T04:43:09;13.10;67.60
1351;DHT22;669;50.206;9.998;2022-08-21T04:45:39;13.20;64.40
1351;DHT22;669;50.206;9.998;2022-08-21T04:48:12;13.20;65.90
1351;DHT22;669;50.206;9.998;2022-08-21T04:50:48;13.20;64.90
1351;DHT22;669;50.206;9.998;2022-08-21T04:53:20;13.20;63.80
1351;DHT22;669;50.206;9.998;2022-08-21T04:55:52;13.30;67.00
1351;DHT22;669;50.206;9.998;2022-08-21T04:58:21;13.60;66.80
1351;DHT22;669;50.206;9.998;2022-08-21T05:00:52;13.80;65.50
1351;DHT22;669;50.206;9.998;2022-08-21T05:03:21;14.10;65.50
1351;DHT22;669;50.206;9.998;2022-08-21T05:05:49;14.30;65.00
1351;DHT22;669;50.206;9.998;2022-08-21T05:08:19;14.60;63.80
1351;DHT22;669;50.206;9.998;2022-08-21T05:10:51;14.60;64.00
1351;DHT22;669;50.206;9.998;2022-08-21T05:13:25;14.90;63.50
1351;DHT22;669;50.206;9.998;2022-08-21T05:15:53;15.20;59.90
1351;DHT22;669;50.206;9.998;2022-08-21T05:18:22;15.30;58.20
1351;DHT22;669;50.206;9.998;2022-08-21T05:20:50;15.40;60.00
1351;DHT22;669;50.206;9.998;2022-08-21T05:23:18;15.60;60.70
1351;DHT22;669;50.206;9.998;2022-08-21T05:25:46;15.80;60.00
1351;DHT22;669;50.206;9.998;2022-08-21T05:28:15;15.90;61.00
1351;DHT22;669;50.206;9.998;2022-08-21T05:30:45;16.10;60.90
1351;DHT22;669;50.206;9.998;2022-08-21T05:33:13;16.50;59.80
1351;DHT22;669;50.206;9.998;2022-08-21T05:35:41;16.80;59.40
1351;DHT22;669;50.206;9.998;2022-08-21T05:38:09;17.10;59.80
1351;DHT22;669;50.206;9.998;2022-08-21T05:40:44;17.40;59.70
1351;DHT22;669;50.206;9.998;2022-08-21T05:43:12;17.60;59.60
1351;DHT22;669;50.206;9.998;2022-08-21T05:45:42;17.80;59.60
1351;DHT22;669;50.206;9.998;2022-08-21T05:48:12;18.10;57.70
1351;DHT22;669;50.206;9.998;2022-08-21T05:50:41;18.30;57.60
1351;DHT22;669;50.206;9.998;2022-08-21T05:53:09;18.60;57.90
1351;DHT22;669;50.206;9.998;2022-08-21T05:55:38;18.80;56.80
1351;DHT22;669;50.206;9.998;2022-08-21T05:58:12;19.10;56.50
1351;DHT22;669;50.206;9.998;2022-08-21T06:00:43;19.20;56.40
1351;DHT22;669;50.206;9.998;2022-08-21T06:03:12;19.30;55.90
1351;DHT22;669;50.206;9.998;2022-08-21T06:05:40;19.50;54.50
1351;DHT22;669;50.206;9.998;2022-08-21T06:08:08;19.70;53.20
1351;DHT22;669;50.206;9.998;2022-08-21T06:10:36;19.90;53.10
1351;DHT22;669;50.206;9.998;2022-08-21T06:13:04;20.00;52.50
1351;DHT22;669;50.206;9.998;2022-08-21T06:15:32;20.20;52.60
1351;DHT22;669;50.206;9.998;2022-08-21T06:18:02;20.40;52.10
1351;DHT22;669;50.206;9.998;2022-08-21T06:20:30;20.50;51.40
1351;DHT22;669;50.206;9.998;2022-08-21T06:22:58;20.70;52.20
1351;DHT22;669;50.206;9.998;2022-08-21T06:25:26;20.90;51.20
1351;DHT22;669;50.206;9.998;2022-08-21T06:28:00;21.10;51.20
1351;DHT22;669;50.206;9.998;2022-08-21T06:30:29;21.20;50.90
1351;DHT22;669;50.206;9.998;2022-08-21T06:32:57;21.50;51.20
1351;DHT22;669;50.206;9.998;2022-08-21T06:35:27;21.70;51.80
1351;DHT22;669;50.206;9.998;2022-08-21T06:37:56;21.80;51.30
1351;DHT22;669;50.206;9.998;2022-08-21T06:40:25;21.90;51.40
1351;DHT22;669;50.206;9.998;2022-08-21T06:42:56;22.10;51.70
1351;DHT22;669;50.206;9.998;2022-08-21T06:45:25;22.40;50.40
1351;DHT22;669;50.206;9.998;2022-08-21T06:47:58;22.50;49.60
1351;DHT22;669;50.206;9.998;2022-08-21T06:50:28;22.70;48.90
1351;DHT22;669;50.206;9.998;2022-08-21T06:53:02;22.90;47.90
1351;DHT22;669;50.206;9.998;2022-08-21T06:55:30;23.20;47.70
1351;DHT22;669;50.206;9.998;2022-08-21T06:57:59;23.50;47.00
1351;DHT22;669;50.206;9.998;2022-08-21T07:00:27;23.80;46.60
1351;DHT22;669;50.206;9.998;2022-08-21T07:02:55;23.90;45.80
1351;DHT22;669;50.206;9.998;2022-08-21T07:05:26;24.30;45.00
1351;DHT22;669;50.206;9.998;2022-08-21T07:07:55;24.40;44.10
1351;DHT22;669;50.206;9.998;2022-08-21T07:10:23;24.50;45.50
1351;DHT22;669;50.206;9.998;2022-08-21T07:12:52;24.60;44.20
1351;DHT22;669;50.206;9.998;2022-08-21T07:15:27;24.90;44.00
1351;DHT22;669;50.206;9.998;2022-08-21T07:17:56;25.10;43.60
1351;DHT22;669;50.206;9.998;2022-08-21T07:20:26;25.40;42.40
1351;DHT22;669;50.206;9.998;2022-08-21T07:22:55;25.40;42.10
1351;DHT22;669;50.206;9.998;2022-08-21T07:25:24;25.50;41.50
1351;DHT22;669;50.206;9.998;2022-08-21T07:27:52;25.60;42.80
1351;DHT22;669;50.206;9.998;2022-08-21T07:30:20;25.80;41.50
1351;DHT22;669;50.206;9.998;2022-08-21T07:32:49;26.10;41.30
1351;DHT22;669;50.206;9.998;2022-08-21T07:35:17;26.30;41.00
1351;DHT22;669;50.206;9.998;2022-08-21T07:37:47;26.30;40.50
1351;DHT22;669;50.206;9.998;2022-08-21T07:40:15;26.40;40.80
1351;DHT22;669;50.206;9.998;2022-08-21T07:42:47;26.60;39.70
1351;DHT22;669;50.206;9.998;2022-08-21T07:45:19;26.60;39.30
1351;DHT22;669;50.206;9.998;2022-08-21T07:47:48;26.60;39.20
1351;DHT22;669;50.206;9.998;2022-08-21T07:50:23;26.80;38.70
1351;DHT22;669;50.206;9.998;2022-08-21T07:52:52;27.20;36.60
1351;DHT22;669;50.206;9.998;2022-08-21T07:55:21;27.30;36.40
1351;DHT22;669;50.206;9.998;2022-08-21T07:57:50;27.40;36.30
1351;DHT22;669;50.206;9.998;2022-08-21T08:00:20;27.50;35.90
1351;DHT22;669;50.206;9.998;2022-08-21T08:02:51;27.60;35.30
1351;DHT22;669;50.206;9.998;2022-08-21T08:05:22;27.50;35.80
1351;DHT22;669;50.206;9.998;2022-08-21T08:07:52;27.10;36.10
1351;DHT22;669;50.206;9.998;2022-08-21T08:10:21;26.90;36.60
1351;DHT22;669;50.206;9.998;2022-08-21T08:12:50;27.20;36.60
1351;DHT22;669;50.206;9.998;2022-08-21T08:15:21;27.40;36.30
1351;DHT22;669;50.206;9.998;2022-08-21T08:17:49;27.70;36.40
1351;DHT22;669;50.206;9.998;2022-08-21T08:20:17;27.80;36.00
1351;DHT22;669;50.206;9.998;2022-08-21T08:22:46;28.00;34.60
1351;DHT22;669;50.206;9.998;2022-08-21T08:25:18;27.70;35.30
1351;DHT22;669;50.206;9.998;2022-08-21T08:27:47;28.00;35.00
1351;DHT22;669;50.206;9.998;2022-08-21T08:30:16;28.00;34.60
1351;DHT22;669;50.206;9.998;2022-08-21T08:32:46;28.40;34.40
1351;DHT22;669;50.206;9.998;2022-08-21T08:35:15;28.50;34.30
1351;DHT22;669;50.206;9.998;2022-08-21T08:37:44;28.60;34.40
1351;DHT22;669;50.206;9.998;2022-08-21T08:40:36;28.80;33.40
1351;DHT22;669;50.206;9.998;2022-08-21T08:43:08;28.70;34.00
1351;DHT22;669;50.206;9.998;2022-08-21T08:45:43;28.70;33.70
1351;DHT22;669;50.206;9.998;2022-08-21T08:48:15;28.30;33.60
1351;DHT22;669;50.206;9.998;2022-08-21T08:50:49;28.60;33.60
1351;DHT22;669;50.206;9.998;2022-08-21T08:53:23;28.90;33.60
1351;DHT22;669;50.206;9.998;2022-08-21T08:55:54;29.50;32.20
1351;DHT22;669;50.206;9.998;2022-08-21T08:58:25;29.50;32.30
1351;DHT22;669;50.206;9.998;2022-08-21T09:00:56;29.70;32.20
1351;DHT22;669;50.206;9.998;2022-08-21T09:03:26;29.70;31.20
1351;DHT22;669;50.206;9.998;2022-08-21T09:05:58;30.10;28.50
1351;DHT22;669;50.206;9.998;2022-08-21T09:08:38;29.60;28.20
1351;DHT22;669;50.206;9.998;2022-08-21T09:11:18;29.20;28.30
1351;DHT22;669;50.206;9.998;2022-08-21T09:13:56;29.20;28.30
1351;DHT22;669;50.206;9.998;2022-08-21T09:16:33;28.90;29.10
1351;DHT22;669;50.206;9.998;2022-08-21T09:19:22;28.00;30.00
1351;DHT22;669;50.206;9.998;2022-08-21T09:21:58;27.80;29.80
1351;DHT22;669;50.206;9.998;2022-08-21T09:24:33;27.60;30.00
1351;DHT22;669;50.206;9.998;2022-08-21T09:27:09;27.70;30.40
1351;DHT22;669;50.206;9.998;2022-08-21T09:29:39;27.80;30.20
1351;DHT22;669;50.206;9.998;2022-08-21T09:32:13;27.60;29.50
1351;DHT22;669;50.206;9.998;2022-08-21T09:34:56;27.60;30.20
1351;DHT22;669;50.206;9.998;2022-08-21T09:37:25;27.90;30.40
1351;DHT22;669;50.206;9.998;2022-08-21T09:39:53;28.30;27.50
1351;DHT22;669;50.206;9.998;2022-08-21T09:42:26;28.80;27.80
1351;DHT22;669;50.206;9.998;2022-08-21T09:45:09;29.20;26.10
1351;DHT22;669;50.206;9.998;2022-08-21T09:47:39;29.30;24.20
1351;DHT22;669;50.206;9.998;2022-08-21T09:50:12;29.10;24.50
1351;DHT22;669;50.206;9.998;2022-08-21T09:52:46;29.40;24.00
1351;DHT22;669;50.206;9.998;2022-08-21T09:55:20;29.90;23.60
1351;DHT22;669;50.206;9.998;2022-08-21T09:58:08;30.20;23.00
1351;DHT22;669;50.206;9.998;2022-08-21T10:00:37;30.30;22.80
1351;DHT22;669;50.206;9.998;2022-08-21T10:03:11;30.40;23.90
1351;DHT22;669;50.206;9.998;2022-08-21T10:05:39;30.60;23.60
1351;DHT22;669;50.206;9.998;2022-08-21T10:08:17;31.10;22.00
1351;DHT22;669;50.206;9.998;2022-08-21T10:10:45;31.50;21.10
1351;DHT22;669;50.206;9.998;2022-08-21T10:13:29;31.60;21.20
1351;DHT22;669;50.206;9.998;2022-08-21T10:16:12;31.70;21.20
1351;DHT22;669;50.206;9.998;2022-08-21T10:18:47;32.00;21.00
1351;DHT22;669;50.206;9.998;2022-08-21T10:21:22;31.90;21.30
1351;DHT22;669;50.206;9.998;2022-08-21T10:24:02;32.30;21.20
1351;DHT22;669;50.206;9.998;2022-08-21T10:26:43;32.60;19.40
1351;DHT22;669;50.206;9.998;2022-08-21T10:29:24;32.70;19.30
1351;DHT22;669;50.206;9.998;2022-08-21T10:32:02;32.80;20.30
1351;DHT22;669;50.206;9.998;2022-08-21T10:34:57;32.40;19.80
1351;DHT22;669;50.206;9.998;2022-08-21T10:37:34;32.10;20.80
1351;DHT22;669;50.206;9.998;2022-08-21T10:40:12;31.70;20.90
1351;DHT22;669;50.206;9.998;2022-08-21T10:42:50;32.20;20.10
1351;DHT22;669;50.206;9.998;2022-08-21T10:45:32;32.60;20.10
1351;DHT22;669;50.206;9.998;2022-08-21T10:48:05;32.80;19.60
1351;DHT22;669;50.206;9.998;2022-08-21T10:50:39;32.80;18.90
1351;DHT22;669;50.206;9.998;2022-08-21T10:53:22;32.30;19.80
1351;DHT22;669;50.206;9.998;2022-08-21T10:55:56;32.60;19.10
1351;DHT22;669;50.206;9.998;2022-08-21T10:58:29;32.50;19.80
1351;DHT22;669;50.206;9.998;2022-08-21T11:01:07;32.30;20.10
1351;DHT22;669;50.206;9.998;2022-08-21T11:03:42;32.20;20.50
1351;DHT22;669;50.206;9.998;2022-08-21T11:06:14;32.60;19.00
1351;DHT22;669;50.206;9.998;2022-08-21T11:08:44;32.70;18.80
1351;DHT22;669;50.206;9.998;2022-08-21T11:11:17;32.70;20.50
1351;DHT22;669;50.206;9.998;2022-08-21T11:13:50;33.00;19.60
1351;DHT22;669;50.206;9.998;2022-08-21T11:16:26;33.20;19.90
1351;DHT22;669;50.206;9.998;2022-08-21T11:19:02;33.30;18.30
1351;DHT22;669;50.206;9.998;2022-08-21T11:21:37;33.60;18.40
1351;DHT22;669;50.206;9.998;2022-08-21T11:24:15;33.10;18.40
1351;DHT22;669;50.206;9.998;2022-08-21T11:26:49;32.90;18.80
1351;DHT22;669;50.206;9.998;2022-08-21T11:29:31;33.20;17.90
1351;DHT22;669;50.206;9.998;2022-08-21T11:32:13;33.60;16.50
1351;DHT22;669;50.206;9.998;2022-08-21T11:34:56;33.50;16.60
1351;DHT22;669;50.206;9.998;2022-08-21T11:37:39;32.50;16.30
1351;DHT22;669;50.206;9.998;2022-08-21T11:40:24;31.80;16.40
1351;DHT22;669;50.206;9.998;2022-08-21T11:43:02;31.80;17.50
1351;DHT22;669;50.206;9.998;2022-08-21T11:45:49;31.90;17.80
1351;DHT22;669;50.206;9.998;2022-08-21T11:48:30;32.00;17.80
1351;DHT22;669;50.206;9.998;2022-08-21T11:51:03;32.00;18.00
1351;DHT22;669;50.206;9.998;2022-08-21T11:53:36;32.30;17.10
1351;DHT22;669;50.206;9.998;2022-08-21T11:56:09;32.60;17.20
1351;DHT22;669;50.206;9.998;2022-08-21T11:58:41;32.70;16.60
1351;DHT22;669;50.206;9.998;2022-08-21T12:01:15;32.70;17.60
1351;DHT22;669;50.206;9.998;2022-08-21T12:03:55;32.50;17.80
1351;DHT22;669;50.206;9.998;2022-08-21T12:06:31;31.80;18.30
1351;DHT22;669;50.206;9.998;2022-08-21T12:09:02;31.70;17.90
1351;DHT22;669;50.206;9.998;2022-08-21T12:11:30;31.80;18.50
1351;DHT22;669;50.206;9.998;2022-08-21T12:14:10;32.10;19.10
1351;DHT22;669;50.206;9.998;2022-08-21T12:16:41;32.40;17.10
1351;DHT22;669;50.206;9.998;2022-08-21T12:22:07;32.30;18.20
1351;DHT22;669;50.206;9.998;2022-08-21T12:24:37;32.60;18.00
1351;DHT22;669;50.206;9.998;2022-08-21T12:27:27;32.90;17.50
1351;DHT22;669;50.206;9.998;2022-08-21T12:29:59;33.10;17.50
1351;DHT22;669;50.206;9.998;2022-08-21T12:32:29;33.20;17.40
1351;DHT22;669;50.206;9.998;2022-08-21T12:35:02;33.40;17.00
1351;DHT22;669;50.206;9.998;2022-08-21T12:37:43;33.60;17.30
1351;DHT22;669;50.206;9.998;2022-08-21T12:40:18;33.30;17.30
1351;DHT22;669;50.206;9.998;2022-08-21T12:42:50;32.60;17.90
1351;DHT22;669;50.206;9.998;2022-08-21T12:45:29;32.10;17.70
1351;DHT22;669;50.206;9.998;2022-08-21T12:48:01;31.40;18.90
1351;DHT22;669;50.206;9.998;2022-08-21T12:50:36;31.70;18.50
1351;DHT22;669;50.206;9.998;2022-08-21T12:53:08;31.40;18.80
1351;DHT22;669;50.206;9.998;2022-08-21T12:55:46;31.50;18.60
1351;DHT22;669;50.206;9.998;2022-08-21T12:58:18;31.10;19.20
1351;DHT22;669;50.206;9.998;2022-08-21T13:00:49;31.20;18.30
1351;DHT22;669;50.206;9.998;2022-08-21T13:03:18;31.20;19.70
1351;DHT22;669;50.206;9.998;2022-08-21T13:05:48;31.70;18.40
1351;DHT22;669;50.206;9.998;2022-08-21T13:08:20;32.00;18.80
1351;DHT22;669;50.206;9.998;2022-08-21T13:10:57;32.40;16.10
1351;DHT22;669;50.206;9.998;2022-08-21T13:13:36;32.60;16.70
1351;DHT22;669;50.206;9.998;2022-08-21T13:16:20;33.10;16.80
1351;DHT22;669;50.206;9.998;2022-08-21T13:18:57;33.70;15.70
1351;DHT22;669;50.206;9.998;2022-08-21T13:21:30;33.80;15.90
1351;DHT22;669;50.206;9.998;2022-08-21T13:24:13;33.60;15.80
1351;DHT22;669;50.206;9.998;2022-08-21T13:27:03;33.40;15.80
1351;DHT22;669;50.206;9.998;2022-08-21T13:29:33;33.30;16.70
1351;DHT22;669;50.206;9.998;2022-08-21T13:32:05;33.20;16.50
1351;DHT22;669;50.206;9.998;2022-08-21T13:34:37;33.50;15.80
1351;DHT22;669;50.206;9.998;2022-08-21T13:37:08;33.30;16.50
1351;DHT22;669;50.206;9.998;2022-08-21T13:39:36;33.50;15.90
1351;DHT22;669;50.206;9.998;2022-08-21T13:42:10;33.50;16.00
1351;DHT22;669;50.206;9.998;2022-08-21T13:44:41;33.50;16.10
1351;DHT22;669;50.206;9.998;2022-08-21T13:47:12;33.40;16.30
1351;DHT22;669;50.206;9.998;2022-08-21T13:49:43;33.30;16.10
1351;DHT22;669;50.206;9.998;2022-08-21T13:52:16;33.00;16.40
1351;DHT22;669;50.206;9.998;2022-08-21T13:54:53;32.80;16.40
1351;DHT22;669;50.206;9.998;2022-08-21T13:57:26;32.50;16.90
1351;DHT22;669;50.206;9.998;2022-08-21T14:00:10;32.40;17.30
1351;DHT22;669;50.206;9.998;2022-08-21T14:02:41;31.90;17.00
1351;DHT22;669;50.206;9.998;2022-08-21T14:05:16;31.40;17.50
1351;DHT22;669;50.206;9.998;2022-08-21T14:07:50;31.20;18.50
1351;DHT22;669;50.206;9.998;2022-08-21T14:10:21;30.80;18.00
1351;DHT22;669;50.206;9.998;2022-08-21T14:12:52;30.50;18.30
1351;DHT22;669;50.206;9.998;2022-08-21T14:15:24;30.40;18.70
1351;DHT22;669;50.206;9.998;2022-08-21T14:18:07;30.00;18.70
1351;DHT22;669;50.206;9.998;2022-08-21T14:20:36;29.70;19.50
1351;DHT22;669;50.206;9.998;2022-08-21T14:23:06;29.40;20.10
1351;DHT22;669;50.206;9.998;2022-08-21T14:25:39;29.30;19.40
1351;DHT22;669;50.206;9.998;2022-08-21T14:28:19;29.80;19.00
1351;DHT22;669;50.206;9.998;2022-08-21T14:30:54;30.10;18.80
1351;DHT22;669;50.206;9.998;2022-08-21T14:33:26;30.00;18.30
1351;DHT22;669;50.206;9.998;2022-08-21T14:35:55;30.00;18.60
1351;DHT22;669;50.206;9.998;2022-08-21T14:38:26;29.80;18.90
1351;DHT22;669;50.206;9.998;2022-08-21T14:40:55;29.50;18.50
1351;DHT22;669;50.206;9.998;2022-08-21T14:43:26;29.10;19.90
1351;DHT22;669;50.206;9.998;2022-08-21T14:45:54;28.80;19.70
1351;DHT22;669;50.206;9.998;2022-08-21T14:48:22;28.50;19.80
1351;DHT22;669;50.206;9.998;2022-08-21T14:50:51;28.40;19.70
1351;DHT22;669;50.206;9.998;2022-08-21T14:53:26;28.30;20.00
1351;DHT22;669;50.206;9.998;2022-08-21T14:55:54;28.20;19.90
1351;DHT22;669;50.206;9.998;2022-08-21T14:58:37;28.20;20.60
1351;DHT22;669;50.206;9.998;2022-08-21T15:01:07;28.10;20.10
1351;DHT22;669;50.206;9.998;2022-08-21T15:03:36;28.00;20.60
1351;DHT22;669;50.206;9.998;2022-08-21T15:06:06;28.30;20.40
1351;DHT22;669;50.206;9.998;2022-08-21T15:08:36;28.50;21.00
1351;DHT22;669;50.206;9.998;2022-08-21T15:11:06;28.60;19.70
1351;DHT22;669;50.206;9.998;2022-08-21T15:13:38;28.90;19.80
1351;DHT22;669;50.206;9.998;2022-08-21T15:16:08;29.10;19.20
1351;DHT22;669;50.206;9.998;2022-08-21T15:18:37;29.30;18.30
1351;DHT22;669;50.206;9.998;2022-08-21T15:21:06;29.30;18.70
1351;DHT22;669;50.206;9.998;2022-08-21T15:23:35;29.40;18.40
1351;DHT22;669;50.206;9.998;2022-08-21T15:26:09;29.40;19.10
1351;DHT22;669;50.206;9.998;2022-08-21T15:28:38;29.00;19.50
1351;DHT22;669;50.206;9.998;2022-08-21T15:31:06;28.90;19.00
1351;DHT22;669;50.206;9.998;2022-08-21T15:33:34;28.80;19.20
1351;DHT22;669;50.206;9.998;2022-08-21T15:36:02;28.70;19.70
1351;DHT22;669;50.206;9.998;2022-08-21T15:38:30;28.30;19.50
1351;DHT22;669;50.206;9.998;2022-08-21T15:41:01;28.00;20.00
1351;DHT22;669;50.206;9.998;2022-08-21T15:43:37;27.90;20.40
1351;DHT22;669;50.206;9.998;2022-08-21T15:46:10;27.70;21.20
1351;DHT22;669;50.206;9.998;2022-08-21T15:48:39;27.70;21.40
1351;DHT22;669;50.206;9.998;2022-08-21T15:51:08;27.70;21.20
1351;DHT22;669;50.206;9.998;2022-08-21T15:53:36;27.70;20.60
1351;DHT22;669;50.206;9.998;2022-08-21T15:56:11;27.60;20.80
1351;DHT22;669;50.206;9.998;2022-08-21T15:58:42;27.40;21.20
1351;DHT22;669;50.206;9.998;2022-08-21T16:01:10;27.40;20.50
1351;DHT22;669;50.206;9.998;2022-08-21T16:03:38;27.30;21.20
1351;DHT22;669;50.206;9.998;2022-08-21T16:06:06;27.30;21.00
1351;DHT22;669;50.206;9.998;2022-08-21T16:08:34;27.40;20.90
1351;DHT22;669;50.206;9.998;2022-08-21T16:11:02;27.30;20.80
1351;DHT22;669;50.206;9.998;2022-08-21T16:13:35;27.30;21.50
1351;DHT22;669;50.206;9.998;2022-08-21T16:16:04;27.20;21.20
1351;DHT22;669;50.206;9.998;2022-08-21T16:18:32;27.10;21.40
1351;DHT22;669;50.206;9.998;2022-08-21T16:21:00;27.00;21.30
1351;DHT22;669;50.206;9.998;2022-08-21T16:23:28;26.90;21.30
1351;DHT22;669;50.206;9.998;2022-08-21T16:25:57;26.90;21.90
1351;DHT22;669;50.206;9.998;2022-08-21T16:28:25;26.80;21.60
1351;DHT22;669;50.206;9.998;2022-08-21T16:30:55;26.70;21.80
1351;DHT22;669;50.206;9.998;2022-08-21T16:33:28;26.80;21.60
1351;DHT22;669;50.206;9.998;2022-08-21T16:35:57;26.80;22.10
1351;DHT22;669;50.206;9.998;2022-08-21T16:38:26;26.80;22.00
1351;DHT22;669;50.206;9.998;2022-08-21T16:40:54;26.80;21.40
1351;DHT22;669;50.206;9.998;2022-08-21T16:43:25;26.80;21.60
1351;DHT22;669;50.206;9.998;2022-08-21T16:45:56;26.70;21.50
1351;DHT22;669;50.206;9.998;2022-08-21T16:48:25;26.70;21.40